Aviation Digital Data Service (ADDS)

Output produced by METARs form (2031 UTC 23 January 2019)
found at http://www.aviationweather.gov/metar/data/
 
METAR text: DFOO 232000Z 01005KT CAVOK 23/07 Q1014
Conditions at: DFOO (BOBO-DIOULASSO , BF) observed 2000 UTC 23 January 2019
Temperature: 23.0°C (73°F)
Dewpoint: 7.0°C (45°F) [RH = 36%]
Pressure (altimeter): 29.94 inches Hg (1014.0 mb)
Winds: from the N (10 degrees) at 6 MPH (5 knots; 2.6 m/s)
Visibility: 6 or more miles (10+ km)
Ceiling: ceiling and visibility are OK
Clouds: unknown
Weather: no significant weather observed at this time

METAR text: DFOO 231900Z 03004KT CAVOK 24/07 Q1013
Conditions at: DFOO (BOBO-DIOULASSO , BF) observed 1900 UTC 23 January 2019
Temperature: 24.0°C (75°F)
Dewpoint: 7.0°C (45°F) [RH = 34%]
Pressure (altimeter): 29.91 inches Hg (1013.0 mb)
Winds: from the NNE (30 degrees) at 5 MPH (4 knots; 2.1 m/s)
Visibility: 6 or more miles (10+ km)
Ceiling: ceiling and visibility are OK
Clouds: unknown
Weather: no significant weather observed at this time

METAR text: DFOO 231800Z 06004KT CAVOK 30/03 Q1013
Conditions at: DFOO (BOBO-DIOULASSO , BF) observed 1800 UTC 23 January 2019
Temperature: 30.0°C (86°F)
Dewpoint: 3.0°C (37°F) [RH = 18%]
Pressure (altimeter): 29.91 inches Hg (1013.0 mb)
Winds: from the ENE (60 degrees) at 5 MPH (4 knots; 2.1 m/s)
Visibility: 6 or more miles (10+ km)
Ceiling: ceiling and visibility are OK
Clouds: unknown
Weather: no significant weather observed at this time

METAR text: DFOO 231700Z 01005KT 310V080 CAVOK 31/M03 Q1010
Conditions at: DFOO (BOBO-DIOULASSO , BF) observed 1700 UTC 23 January 2019
Temperature: 31.0°C (88°F)
Dewpoint: -3.0°C (27°F) [RH = 11%]
Pressure (altimeter): 29.82 inches Hg (1010.0 mb)
Winds: from the N (10 degrees) at 6 MPH (5 knots; 2.6 m/s)
Visibility: 6 or more miles (10+ km)
Ceiling: ceiling and visibility are OK
Clouds: unknown
Weather: no significant weather observed at this time

METAR text: DFOO 231600Z 35006KT CAVOK 32/M03 Q1012
Conditions at: DFOO (BOBO-DIOULASSO , BF) observed 1600 UTC 23 January 2019
Temperature: 32.0°C (90°F)
Dewpoint: -3.0°C (27°F) [RH = 10%]
Pressure (altimeter): 29.88 inches Hg (1012.0 mb)
Winds: from the N (350 degrees) at 7 MPH (6 knots; 3.1 m/s)
Visibility: 6 or more miles (10+ km)
Ceiling: ceiling and visibility are OK
Clouds: unknown
Weather: no significant weather observed at this time

METAR text: DFOO 231500Z 32008KT CAVOK 31/M06 Q1012
Conditions at: DFOO (BOBO-DIOULASSO , BF) observed 1500 UTC 23 January 2019
Temperature: 31.0°C (88°F)
Dewpoint: -6.0°C (21°F) [RH =  9%]
Pressure (altimeter): 29.88 inches Hg (1012.0 mb)
Winds: from the NW (320 degrees) at 9 MPH (8 knots; 4.1 m/s)
Visibility: 6 or more miles (10+ km)
Ceiling: ceiling and visibility are OK
Clouds: unknown
Weather: no significant weather observed at this time

METAR text: DFOO 231400Z 36006KT CAVOK 30/M04 Q1013
Conditions at: DFOO (BOBO-DIOULASSO , BF) observed 1400 UTC 23 January 2019
Temperature: 30.0°C (86°F)
Dewpoint: -4.0°C (25°F) [RH = 11%]
Pressure (altimeter): 29.91 inches Hg (1013.0 mb)
Winds: from the N (360 degrees) at 7 MPH (6 knots; 3.1 m/s)
Visibility: 6 or more miles (10+ km)
Ceiling: ceiling and visibility are OK
Clouds: unknown
Weather: no significant weather observed at this time

METAR text: DFOO 231300Z 06006KT CAVOK 29/M06 Q1014
Conditions at: DFOO (BOBO-DIOULASSO , BF) observed 1300 UTC 23 January 2019
Temperature: 29.0°C (84°F)
Dewpoint: -6.0°C (21°F) [RH = 10%]
Pressure (altimeter): 29.94 inches Hg (1014.0 mb)
Winds: from the ENE (60 degrees) at 7 MPH (6 knots; 3.1 m/s)
Visibility: 6 or more miles (10+ km)
Ceiling: ceiling and visibility are OK
Clouds: unknown
Weather: no significant weather observed at this time

METAR text: DFOO 231200Z 02008KT CAVOK 28/M06 Q1015
Conditions at: DFOO (BOBO-DIOULASSO , BF) observed 1200 UTC 23 January 2019
Temperature: 28.0°C (82°F)
Dewpoint: -6.0°C (21°F) [RH = 10%]
Pressure (altimeter): 29.97 inches Hg (1015.0 mb)
Winds: from the NNE (20 degrees) at 9 MPH (8 knots; 4.1 m/s)
Visibility: 6 or more miles (10+ km)
Ceiling: ceiling and visibility are OK
Clouds: unknown
Weather: no significant weather observed at this time

METAR text: DFOO 231100Z 02008KT CAVOK 26/M07 Q1016
Conditions at: DFOO (BOBO-DIOULASSO , BF) observed 1100 UTC 23 January 2019
Temperature: 26.0°C (79°F)
Dewpoint: -7.0°C (19°F) [RH = 11%]
Pressure (altimeter): 30.00 inches Hg (1016.0 mb)
Winds: from the NNE (20 degrees) at 9 MPH (8 knots; 4.1 m/s)
Visibility: 6 or more miles (10+ km)
Ceiling: ceiling and visibility are OK
Clouds: unknown
Weather: no significant weather observed at this time

METAR text: DFOO 231000Z 03010KT 350V060 CAVOK 24/M08 Q1016
Conditions at: DFOO (BOBO-DIOULASSO , BF) observed 1000 UTC 23 January 2019
Temperature: 24.0°C (75°F)
Dewpoint: -8.0°C (18°F) [RH = 11%]
Pressure (altimeter): 30.00 inches Hg (1016.0 mb)
Winds: from the NNE (30 degrees) at 12 MPH (10 knots; 5.1 m/s)
Visibility: 6 or more miles (10+ km)
Ceiling: ceiling and visibility are OK
Clouds: unknown
Weather: no significant weather observed at this time

METAR text: DFOO 230900Z 02010KT CAVOK 22/M07 Q1016
Conditions at: DFOO (BOBO-DIOULASSO , BF) observed 0900 UTC 23 January 2019
Temperature: 22.0°C (72°F)
Dewpoint: -7.0°C (19°F) [RH = 14%]
Pressure (altimeter): 30.00 inches Hg (1016.0 mb)
Winds: from the NNE (20 degrees) at 12 MPH (10 knots; 5.1 m/s)
Visibility: 6 or more miles (10+ km)
Ceiling: ceiling and visibility are OK
Clouds: unknown
Weather: no significant weather observed at this time

METAR text: DFOO 230800Z 01006KT 340V040 CAVOK 20/M05 Q1015
Conditions at: DFOO (BOBO-DIOULASSO , BF) observed 0800 UTC 23 January 2019
Temperature: 20.0°C (68°F)
Dewpoint: -5.0°C (23°F) [RH = 18%]
Pressure (altimeter): 29.97 inches Hg (1015.0 mb)
Winds: from the N (10 degrees) at 7 MPH (6 knots; 3.1 m/s)
Visibility: 6 or more miles (10+ km)
Ceiling: ceiling and visibility are OK
Clouds: unknown
Weather: no significant weather observed at this time

METAR text: DFOO 230700Z 36004KT CAVOK 16/00 Q1015
Conditions at: DFOO (BOBO-DIOULASSO , BF) observed 0700 UTC 23 January 2019
Temperature: 16.0°C (61°F)
Dewpoint: 0.0°C (32°F) [RH = 34%]
Pressure (altimeter): 29.97 inches Hg (1015.0 mb)
Winds: from the N (360 degrees) at 5 MPH (4 knots; 2.1 m/s)
Visibility: 6 or more miles (10+ km)
Ceiling: ceiling and visibility are OK
Clouds: unknown
Weather: no significant weather observed at this time

METAR text: DFOO 230600Z 36006KT CAVOK 17/M01 Q1014
Conditions at: DFOO (BOBO-DIOULASSO , BF) observed 0600 UTC 23 January 2019
Temperature: 17.0°C (63°F)
Dewpoint: -1.0°C (30°F) [RH = 29%]
Pressure (altimeter): 29.94 inches Hg (1014.0 mb)
Winds: from the N (360 degrees) at 7 MPH (6 knots; 3.1 m/s)
Visibility: 6 or more miles (10+ km)
Ceiling: ceiling and visibility are OK
Clouds: unknown
Weather: no significant weather observed at this time

METAR text: DFOO 230500Z 36006KT CAVOK 18/M00 Q1014
Conditions at: DFOO (BOBO-DIOULASSO , BF) observed 0500 UTC 23 January 2019
Temperature: 18.0°C (64°F)
Dewpoint: 0.0°C (32°F) [RH = 30%]
Pressure (altimeter): 29.94 inches Hg (1014.0 mb)
Winds: from the N (360 degrees) at 7 MPH (6 knots; 3.1 m/s)
Visibility: 6 or more miles (10+ km)
Ceiling: ceiling and visibility are OK
Clouds: unknown
Weather: no significant weather observed at this time

METAR text: DFOO 230400Z 36006KT CAVOK 19/M00 Q1014
Conditions at: DFOO (BOBO-DIOULASSO , BF) observed 0400 UTC 23 January 2019
Temperature: 19.0°C (66°F)
Dewpoint: 0.0°C (32°F) [RH = 28%]
Pressure (altimeter): 29.94 inches Hg (1014.0 mb)
Winds: from the N (360 degrees) at 7 MPH (6 knots; 3.1 m/s)
Visibility: 6 or more miles (10+ km)
Ceiling: ceiling and visibility are OK
Clouds: unknown
Weather: no significant weather observed at this time

METAR text: DFOO 230300Z 36008KT CAVOK 19/M00 Q1014
Conditions at: DFOO (BOBO-DIOULASSO , BF) observed 0300 UTC 23 January 2019
Temperature: 19.0°C (66°F)
Dewpoint: 0.0°C (32°F) [RH = 28%]
Pressure (altimeter): 29.94 inches Hg (1014.0 mb)
Winds: from the N (360 degrees) at 9 MPH (8 knots; 4.1 m/s)
Visibility: 6 or more miles (10+ km)
Ceiling: ceiling and visibility are OK
Clouds: unknown
Weather: no significant weather observed at this time

METAR text: DFOO 230200Z 36008KT CAVOK 22/M03 Q1014
Conditions at: DFOO (BOBO-DIOULASSO , BF) observed 0200 UTC 23 January 2019
Temperature: 22.0°C (72°F)
Dewpoint: -3.0°C (27°F) [RH = 19%]
Pressure (altimeter): 29.94 inches Hg (1014.0 mb)
Winds: from the N (360 degrees) at 9 MPH (8 knots; 4.1 m/s)
Visibility: 6 or more miles (10+ km)
Ceiling: ceiling and visibility are OK
Clouds: unknown
Weather: no significant weather observed at this time

METAR text: DFOO 230100Z 36008KT CAVOK 22/M03 Q1014
Conditions at: DFOO (BOBO-DIOULASSO , BF) observed 0100 UTC 23 January 2019
Temperature: 22.0°C (72°F)
Dewpoint: -3.0°C (27°F) [RH = 19%]
Pressure (altimeter): 29.94 inches Hg (1014.0 mb)
Winds: from the N (360 degrees) at 9 MPH (8 knots; 4.1 m/s)
Visibility: 6 or more miles (10+ km)
Ceiling: ceiling and visibility are OK
Clouds: unknown
Weather: no significant weather observed at this time

METAR text: DFOO 230000Z 36008KT CAVOK 22/M03 Q1014
Conditions at: DFOO (BOBO-DIOULASSO , BF) observed 0000 UTC 23 January 2019
Temperature: 22.0°C (72°F)
Dewpoint: -3.0°C (27°F) [RH = 19%]
Pressure (altimeter): 29.94 inches Hg (1014.0 mb)
Winds: from the N (360 degrees) at 9 MPH (8 knots; 4.1 m/s)
Visibility: 6 or more miles (10+ km)
Ceiling: ceiling and visibility are OK
Clouds: unknown
Weather: no significant weather observed at this time

METAR text: DFOO 222300Z 36008KT CAVOK 23/00 Q1016
Conditions at: DFOO (BOBO-DIOULASSO , BF) observed 2300 UTC 22 January 2019
Temperature: 23.0°C (73°F)
Dewpoint: 0.0°C (32°F) [RH = 22%]
Pressure (altimeter): 30.00 inches Hg (1016.0 mb)
Winds: from the N (360 degrees) at 9 MPH (8 knots; 4.1 m/s)
Visibility: 6 or more miles (10+ km)
Ceiling: ceiling and visibility are OK
Clouds: unknown
Weather: no significant weather observed at this time

METAR text: DFOO 222200Z 36008KT CAVOK 24/00 Q1014
Conditions at: DFOO (BOBO-DIOULASSO , BF) observed 2200 UTC 22 January 2019
Temperature: 24.0°C (75°F)
Dewpoint: 0.0°C (32°F) [RH = 20%]
Pressure (altimeter): 29.94 inches Hg (1014.0 mb)
Winds: from the N (360 degrees) at 9 MPH (8 knots; 4.1 m/s)
Visibility: 6 or more miles (10+ km)
Ceiling: ceiling and visibility are OK
Clouds: unknown
Weather: no significant weather observed at this time

METAR text: DFOO 222100Z 36008KT CAVOK 24/00 Q1014
Conditions at: DFOO (BOBO-DIOULASSO , BF) observed 2100 UTC 22 January 2019
Temperature: 24.0°C (75°F)
Dewpoint: 0.0°C (32°F) [RH = 20%]
Pressure (altimeter): 29.94 inches Hg (1014.0 mb)
Winds: from the N (360 degrees) at 9 MPH (8 knots; 4.1 m/s)
Visibility: 6 or more miles (10+ km)
Ceiling: ceiling and visibility are OK
Clouds: unknown
Weather: no significant weather observed at this time

METAR text: DFOO 222000Z 33007KT CAVOK 25/M00 Q1014
Conditions at: DFOO (BOBO-DIOULASSO , BF) observed 2000 UTC 22 January 2019
Temperature: 25.0°C (77°F)
Dewpoint: 0.0°C (32°F) [RH = 19%]
Pressure (altimeter): 29.94 inches Hg (1014.0 mb)
Winds: from the NNW (330 degrees) at 8 MPH (7 knots; 3.6 m/s)
Visibility: 6 or more miles (10+ km)
Ceiling: ceiling and visibility are OK
Clouds: unknown
Weather: no significant weather observed at this time

METAR text: DFOO 221900Z 32007KT CAVOK 27/00 Q1013
Conditions at: DFOO (BOBO-DIOULASSO , BF) observed 1900 UTC 22 January 2019
Temperature: 27.0°C (81°F)
Dewpoint: 0.0°C (32°F) [RH = 17%]
Pressure (altimeter): 29.91 inches Hg (1013.0 mb)
Winds: from the NW (320 degrees) at 8 MPH (7 knots; 3.6 m/s)
Visibility: 6 or more miles (10+ km)
Ceiling: ceiling and visibility are OK
Clouds: unknown
Weather: no significant weather observed at this time

METAR text: DFOO 221800Z 29005KT CAVOK 30/02 Q1013
Conditions at: DFOO (BOBO-DIOULASSO , BF) observed 1800 UTC 22 January 2019
Temperature: 30.0°C (86°F)
Dewpoint: 2.0°C (36°F) [RH = 17%]
Pressure (altimeter): 29.91 inches Hg (1013.0 mb)
Winds: from the WNW (290 degrees) at 6 MPH (5 knots; 2.6 m/s)
Visibility: 6 or more miles (10+ km)
Ceiling: ceiling and visibility are OK
Clouds: unknown
Weather: no significant weather observed at this time

METAR text: DFOO 221700Z 02004KT CAVOK 32/01 Q1012
Conditions at: DFOO (BOBO-DIOULASSO , BF) observed 1700 UTC 22 January 2019
Temperature: 32.0°C (90°F)
Dewpoint: 1.0°C (34°F) [RH = 14%]
Pressure (altimeter): 29.88 inches Hg (1012.0 mb)
Winds: from the NNE (20 degrees) at 5 MPH (4 knots; 2.1 m/s)
Visibility: 6 or more miles (10+ km)
Ceiling: ceiling and visibility are OK
Clouds: unknown
Weather: no significant weather observed at this time

METAR text: DFOO 221600Z 36006KT CAVOK 32/02 Q1012
Conditions at: DFOO (BOBO-DIOULASSO , BF) observed 1600 UTC 22 January 2019
Temperature: 32.0°C (90°F)
Dewpoint: 2.0°C (36°F) [RH = 15%]
Pressure (altimeter): 29.88 inches Hg (1012.0 mb)
Winds: from the N (360 degrees) at 7 MPH (6 knots; 3.1 m/s)
Visibility: 6 or more miles (10+ km)
Ceiling: ceiling and visibility are OK
Clouds: unknown
Weather: no significant weather observed at this time

METAR text: DFOO 221500Z 36006KT CAVOK 32/M03 Q1013
Conditions at: DFOO (BOBO-DIOULASSO , BF) observed 1500 UTC 22 January 2019
Temperature: 32.0°C (90°F)
Dewpoint: -3.0°C (27°F) [RH = 10%]
Pressure (altimeter): 29.91 inches Hg (1013.0 mb)
Winds: from the N (360 degrees) at 7 MPH (6 knots; 3.1 m/s)
Visibility: 6 or more miles (10+ km)
Ceiling: ceiling and visibility are OK
Clouds: unknown
Weather: no significant weather observed at this time

METAR text: DFOO 221400Z 32008KT CAVOK 31/M02 Q1014
Conditions at: DFOO (BOBO-DIOULASSO , BF) observed 1400 UTC 22 January 2019
Temperature: 31.0°C (88°F)
Dewpoint: -2.0°C (28°F) [RH = 12%]
Pressure (altimeter): 29.94 inches Hg (1014.0 mb)
Winds: from the NW (320 degrees) at 9 MPH (8 knots; 4.1 m/s)
Visibility: 6 or more miles (10+ km)
Ceiling: ceiling and visibility are OK
Clouds: unknown
Weather: no significant weather observed at this time

METAR text: DFOO 221300Z 36008KT CAVOK 30/M01 Q1015
Conditions at: DFOO (BOBO-DIOULASSO , BF) observed 1300 UTC 22 January 2019
Temperature: 30.0°C (86°F)
Dewpoint: -1.0°C (30°F) [RH = 13%]
Pressure (altimeter): 29.97 inches Hg (1015.0 mb)
Winds: from the N (360 degrees) at 9 MPH (8 knots; 4.1 m/s)
Visibility: 6 or more miles (10+ km)
Ceiling: ceiling and visibility are OK
Clouds: unknown
Weather: no significant weather observed at this time

METAR text: DFOO 221200Z 36006KT CAVOK 29/M05 Q1016
Conditions at: DFOO (BOBO-DIOULASSO , BF) observed 1200 UTC 22 January 2019
Temperature: 29.0°C (84°F)
Dewpoint: -5.0°C (23°F) [RH = 11%]
Pressure (altimeter): 30.00 inches Hg (1016.0 mb)
Winds: from the N (360 degrees) at 7 MPH (6 knots; 3.1 m/s)
Visibility: 6 or more miles (10+ km)
Ceiling: ceiling and visibility are OK
Clouds: unknown
Weather: no significant weather observed at this time

METAR text: DFOO 221100Z 02008KT CAVOK 27/M05 Q1017
Conditions at: DFOO (BOBO-DIOULASSO , BF) observed 1100 UTC 22 January 2019
Temperature: 27.0°C (81°F)
Dewpoint: -5.0°C (23°F) [RH = 12%]
Pressure (altimeter): 30.03 inches Hg (1017.0 mb)
Winds: from the NNE (20 degrees) at 9 MPH (8 knots; 4.1 m/s)
Visibility: 6 or more miles (10+ km)
Ceiling: ceiling and visibility are OK
Clouds: unknown
Weather: no significant weather observed at this time

METAR text: DFOO 221000Z 02010KT CAVOK 25/M03 Q1017
Conditions at: DFOO (BOBO-DIOULASSO , BF) observed 1000 UTC 22 January 2019
Temperature: 25.0°C (77°F)
Dewpoint: -3.0°C (27°F) [RH = 15%]
Pressure (altimeter): 30.03 inches Hg (1017.0 mb)
Winds: from the NNE (20 degrees) at 12 MPH (10 knots; 5.1 m/s)
Visibility: 6 or more miles (10+ km)
Ceiling: ceiling and visibility are OK
Clouds: unknown
Weather: no significant weather observed at this time

METAR text: DFOO 220900Z 36008KT CAVOK 23/M03 Q1017
Conditions at: DFOO (BOBO-DIOULASSO , BF) observed 0900 UTC 22 January 2019
Temperature: 23.0°C (73°F)
Dewpoint: -3.0°C (27°F) [RH = 17%]
Pressure (altimeter): 30.03 inches Hg (1017.0 mb)
Winds: from the N (360 degrees) at 9 MPH (8 knots; 4.1 m/s)
Visibility: 6 or more miles (10+ km)
Ceiling: ceiling and visibility are OK
Clouds: unknown
Weather: no significant weather observed at this time

Forecast for: DFOO (BOBO-DIOULASSO , BF)
Text: TAF DFOO 231700Z 2318/2418 36008KT 8000 NSC
Forecast period: 1800 UTC 23 January 2019 to 1800 UTC 24 January 2019
Forecast type: FROM: standard forecast or significant change
Winds: from the N (360 degrees) at 9 MPH (8 knots; 4.1 m/s)
Visibility: 5 miles (8 km)
Ceiling: unknown
Clouds: missing
Weather: no significant weather forecast for this period